sensor_id;sensor_type;location;lat;lon;timestamp;temperature;humidity
46117;DHT22;32591;48.102;11.772;2024-02-15T00:00:22;9.80;99.90
46117;DHT22;32591;48.102;11.772;2024-02-15T00:02:52;9.80;99.90
46117;DHT22;32591;48.102;11.772;2024-02-15T00:05:38;9.80;99.90
46117;DHT22;32591;48.102;11.772;2024-02-15T00:08:06;9.80;99.90
46117;DHT22;32591;48.102;11.772;2024-02-15T00:10:37;9.80;99.90
46117;DHT22;32591;48.102;11.772;2024-02-15T00:13:06;9.80;99.90
46117;DHT22;32591;48.102;11.772;2024-02-15T00:15:34;9.80;99.90
46117;DHT22;32591;48.102;11.772;2024-02-15T00:18:04;9.80;99.90
46117;DHT22;32591;48.102;11.772;2024-02-15T00:20:33;9.80;99.90
46117;DHT22;32591;48.102;11.772;2024-02-15T00:23:01;9.80;99.90
46117;DHT22;32591;48.102;11.772;2024-02-15T00:25:30;9.80;99.90
46117;DHT22;32591;48.102;11.772;2024-02-15T00:28:00;9.90;99.90
46117;DHT22;32591;48.102;11.772;2024-02-15T00:30:28;9.80;99.90
46117;DHT22;32591;48.102;11.772;2024-02-15T00:32:58;9.70;99.90
46117;DHT22;32591;48.102;11.772;2024-02-15T00:35:28;9.70;99.90
46117;DHT22;32591;48.102;11.772;2024-02-15T00:37:57;9.70;99.90
46117;DHT22;32591;48.102;11.772;2024-02-15T00:40:25;9.60;99.90
46117;DHT22;32591;48.102;11.772;2024-02-15T00:42:53;9.60;99.90
46117;DHT22;32591;48.102;11.772;2024-02-15T00:45:23;9.50;99.90
46117;DHT22;32591;48.102;11.772;2024-02-15T00:47:51;9.50;99.90
46117;DHT22;32591;48.102;11.772;2024-02-15T00:50:21;9.60;99.90
46117;DHT22;32591;48.102;11.772;2024-02-15T00:52:50;9.50;99.90
46117;DHT22;32591;48.102;11.772;2024-02-15T00:55:18;9.60;99.90
46117;DHT22;32591;48.102;11.772;2024-02-15T00:57:47;9.60;99.90
46117;DHT22;32591;48.102;11.772;2024-02-15T01:00:15;9.60;99.90
46117;DHT22;32591;48.102;11.772;2024-02-15T01:02:45;9.50;99.90
46117;DHT22;32591;48.102;11.772;2024-02-15T01:05:14;9.50;99.90
46117;DHT22;32591;48.102;11.772;2024-02-15T01:07:43;9.60;99.90
46117;DHT22;32591;48.102;11.772;2024-02-15T01:10:11;9.50;99.90
46117;DHT22;32591;48.102;11.772;2024-02-15T01:12:39;9.50;99.90
46117;DHT22;32591;48.102;11.772;2024-02-15T01:15:08;9.40;99.90
46117;DHT22;32591;48.102;11.772;2024-02-15T01:17:36;9.40;99.90
46117;DHT22;32591;48.102;11.772;2024-02-15T01:20:07;9.40;99.90
46117;DHT22;32591;48.102;11.772;2024-02-15T01:22:37;9.30;99.90
46117;DHT22;32591;48.102;11.772;2024-02-15T01:25:05;9.30;99.90
46117;DHT22;32591;48.102;11.772;2024-02-15T01:27:35;9.30;99.90
46117;DHT22;32591;48.102;11.772;2024-02-15T01:30:04;9.30;99.90
46117;DHT22;32591;48.102;11.772;2024-02-15T01:32:35;9.30;99.90
46117;DHT22;32591;48.102;11.772;2024-02-15T01:35:08;9.30;99.90
46117;DHT22;32591;48.102;11.772;2024-02-15T01:37:37;9.30;99.90
46117;DHT22;32591;48.102;11.772;2024-02-15T01:40:07;9.30;99.90
46117;DHT22;32591;48.102;11.772;2024-02-15T01:42:39;9.30;99.90
46117;DHT22;32591;48.102;11.772;2024-02-15T01:45:08;9.20;99.90
46117;DHT22;32591;48.102;11.772;2024-02-15T01:47:39;9.20;99.90
46117;DHT22;32591;48.102;11.772;2024-02-15T01:50:10;9.20;99.90
46117;DHT22;32591;48.102;11.772;2024-02-15T01:52:40;9.20;99.90
46117;DHT22;32591;48.102;11.772;2024-02-15T01:55:10;9.20;99.90
46117;DHT22;32591;48.102;11.772;2024-02-15T01:57:40;9.20;99.90
46117;DHT22;32591;48.102;11.772;2024-02-15T02:00:12;9.20;99.90
46117;DHT22;32591;48.102;11.772;2024-02-15T02:02:42;9.20;99.90
46117;DHT22;32591;48.102;11.772;2024-02-15T02:05:14;9.20;99.90
46117;DHT22;32591;48.102;11.772;2024-02-15T02:07:42;9.20;99.90
46117;DHT22;32591;48.102;11.772;2024-02-15T02:10:11;9.20;99.90
46117;DHT22;32591;48.102;11.772;2024-02-15T02:12:41;9.20;99.90
46117;DHT22;32591;48.102;11.772;2024-02-15T02:15:09;9.10;99.90
46117;DHT22;32591;48.102;11.772;2024-02-15T02:17:38;9.10;99.90
46117;DHT22;32591;48.102;11.772;2024-02-15T02:20:08;9.10;99.90
46117;DHT22;32591;48.102;11.772;2024-02-15T02:22:43;9.10;99.90
46117;DHT22;32591;48.102;11.772;2024-02-15T02:25:14;9.00;99.90
46117;DHT22;32591;48.102;11.772;2024-02-15T02:27:44;9.10;99.90
46117;DHT22;32591;48.102;11.772;2024-02-15T02:30:14;9.10;99.90
46117;DHT22;32591;48.102;11.772;2024-02-15T02:32:46;9.20;99.90
46117;DHT22;32591;48.102;11.772;2024-02-15T02:35:14;9.20;99.90
46117;DHT22;32591;48.102;11.772;2024-02-15T02:37:43;9.20;99.90
46117;DHT22;32591;48.102;11.772;2024-02-15T02:40:12;9.20;99.90
46117;DHT22;32591;48.102;11.772;2024-02-15T02:42:49;9.20;99.90
46117;DHT22;32591;48.102;11.772;2024-02-15T02:45:18;9.20;99.90
46117;DHT22;32591;48.102;11.772;2024-02-15T02:47:49;9.20;99.90
46117;DHT22;32591;48.102;11.772;2024-02-15T02:50:21;9.30;99.90
46117;DHT22;32591;48.102;11.772;2024-02-15T02:52:50;9.30;99.90
46117;DHT22;32591;48.102;11.772;2024-02-15T02:55:19;9.30;99.90
46117;DHT22;32591;48.102;11.772;2024-02-15T02:57:49;9.30;99.90
46117;DHT22;32591;48.102;11.772;2024-02-15T03:00:17;9.30;99.90
46117;DHT22;32591;48.102;11.772;2024-02-15T03:02:47;9.30;99.90
46117;DHT22;32591;48.102;11.772;2024-02-15T03:05:15;9.30;99.90
46117;DHT22;32591;48.102;11.772;2024-02-15T03:07:44;9.30;99.90
46117;DHT22;32591;48.102;11.772;2024-02-15T03:10:12;9.40;99.90
46117;DHT22;32591;48.102;11.772;2024-02-15T03:12:42;9.40;99.90
46117;DHT22;32591;48.102;11.772;2024-02-15T03:15:16;9.40;99.90
46117;DHT22;32591;48.102;11.772;2024-02-15T03:17:47;9.40;99.90
46117;DHT22;32591;48.102;11.772;2024-02-15T03:20:16;9.30;99.90
46117;DHT22;32591;48.102;11.772;2024-02-15T03:22:53;9.30;99.90
46117;DHT22;32591;48.102;11.772;2024-02-15T03:25:22;9.30;99.90
46117;DHT22;32591;48.102;11.772;2024-02-15T03:27:52;9.30;99.90
46117;DHT22;32591;48.102;11.772;2024-02-15T03:30:25;9.30;99.90
46117;DHT22;32591;48.102;11.772;2024-02-15T03:32:56;9.30;99.90
46117;DHT22;32591;48.102;11.772;2024-02-15T03:35:26;9.30;99.90
46117;DHT22;32591;48.102;11.772;2024-02-15T03:37:55;9.30;99.90
46117;DHT22;32591;48.102;11.772;2024-02-15T03:40:24;9.30;99.90
46117;DHT22;32591;48.102;11.772;2024-02-15T03:42:54;9.20;99.90
46117;DHT22;32591;48.102;11.772;2024-02-15T03:45:24;9.20;99.90
46117;DHT22;32591;48.102;11.772;2024-02-15T03:47:54;9.20;99.90
46117;DHT22;32591;48.102;11.772;2024-02-15T03:50:23;9.20;99.90
46117;DHT22;32591;48.102;11.772;2024-02-15T03:52:52;9.20;99.90
46117;DHT22;32591;48.102;11.772;2024-02-15T03:55:20;9.20;99.90
46117;DHT22;32591;48.102;11.772;2024-02-15T03:57:49;9.30;99.90
46117;DHT22;32591;48.102;11.772;2024-02-15T04:00:17;9.20;99.90
46117;DHT22;32591;48.102;11.772;2024-02-15T04:02:50;9.20;99.90
46117;DHT22;32591;48.102;11.772;2024-02-15T04:05:18;9.20;99.90
46117;DHT22;32591;48.102;11.772;2024-02-15T04:07:50;9.20;99.90
46117;DHT22;32591;48.102;11.772;2024-02-15T04:10:19;9.20;99.90
46117;DHT22;32591;48.102;11.772;2024-02-15T04:12:47;9.20;99.90
46117;DHT22;32591;48.102;11.772;2024-02-15T04:15:16;9.20;99.90
46117;DHT22;32591;48.102;11.772;2024-02-15T04:17:45;9.20;99.90
46117;DHT22;32591;48.102;11.772;2024-02-15T04:20:15;9.20;99.90
46117;DHT22;32591;48.102;11.772;2024-02-15T04:22:44;9.20;99.90
46117;DHT22;32591;48.102;11.772;2024-02-15T04:25:14;9.10;99.90
46117;DHT22;32591;48.102;11.772;2024-02-15T04:27:45;9.10;99.90
46117;DHT22;32591;48.102;11.772;2024-02-15T04:30:14;9.10;99.90
46117;DHT22;32591;48.102;11.772;2024-02-15T04:32:44;9.10;99.90
46117;DHT22;32591;48.102;11.772;2024-02-15T04:35:15;9.00;99.90
46117;DHT22;32591;48.102;11.772;2024-02-15T04:37:43;9.00;99.90
46117;DHT22;32591;48.102;11.772;2024-02-15T04:40:13;9.00;99.90
46117;DHT22;32591;48.102;11.772;2024-02-15T04:42:41;8.90;99.90
46117;DHT22;32591;48.102;11.772;2024-02-15T04:45:12;8.80;99.90
46117;DHT22;32591;48.102;11.772;2024-02-15T04:47:42;8.80;99.90
46117;DHT22;32591;48.102;11.772;2024-02-15T04:50:15;8.70;99.90
46117;DHT22;32591;48.102;11.772;2024-02-15T04:52:45;8.70;99.90
46117;DHT22;32591;48.102;11.772;2024-02-15T04:55:15;8.70;99.90
46117;DHT22;32591;48.102;11.772;2024-02-15T04:57:44;8.60;99.90
46117;DHT22;32591;48.102;11.772;2024-02-15T05:00:14;8.70;99.90
46117;DHT22;32591;48.102;11.772;2024-02-15T05:02:47;8.60;99.90
46117;DHT22;32591;48.102;11.772;2024-02-15T05:05:18;8.60;99.90
46117;DHT22;32591;48.102;11.772;2024-02-15T05:07:46;8.60;99.90
46117;DHT22;32591;48.102;11.772;2024-02-15T05:10:16;8.50;99.90
46117;DHT22;32591;48.102;11.772;2024-02-15T05:12:44;8.50;99.90
46117;DHT22;32591;48.102;11.772;2024-02-15T05:15:15;8.50;99.90
46117;DHT22;32591;48.102;11.772;2024-02-15T05:17:45;8.40;99.90
46117;DHT22;32591;48.102;11.772;2024-02-15T05:20:15;8.40;99.90
46117;DHT22;32591;48.102;11.772;2024-02-15T05:22:44;8.30;99.90
46117;DHT22;32591;48.102;11.772;2024-02-15T05:25:17;8.30;99.90
46117;DHT22;32591;48.102;11.772;2024-02-15T05:27:51;8.30;99.90
46117;DHT22;32591;48.102;11.772;2024-02-15T05:30:20;8.20;99.90
46117;DHT22;32591;48.102;11.772;2024-02-15T05:32:48;8.20;99.90
46117;DHT22;32591;48.102;11.772;2024-02-15T05:35:17;8.10;99.90
46117;DHT22;32591;48.102;11.772;2024-02-15T05:37:47;8.10;99.90
46117;DHT22;32591;48.102;11.772;2024-02-15T05:40:15;8.00;99.90
46117;DHT22;32591;48.102;11.772;2024-02-15T05:42:44;8.00;99.90
46117;DHT22;32591;48.102;11.772;2024-02-15T05:45:29;8.00;99.90
46117;DHT22;32591;48.102;11.772;2024-02-15T05:48:00;7.90;99.90
46117;DHT22;32591;48.102;11.772;2024-02-15T05:50:28;7.90;99.90
46117;DHT22;32591;48.102;11.772;2024-02-15T05:52:59;7.80;99.90
46117;DHT22;32591;48.102;11.772;2024-02-15T05:55:28;7.80;99.90
46117;DHT22;32591;48.102;11.772;2024-02-15T05:58:01;7.70;99.90
46117;DHT22;32591;48.102;11.772;2024-02-15T06:00:30;7.70;99.90
46117;DHT22;32591;48.102;11.772;2024-02-15T06:03:00;7.70;99.90
46117;DHT22;32591;48.102;11.772;2024-02-15T06:05:30;7.60;99.90
46117;DHT22;32591;48.102;11.772;2024-02-15T06:08:00;7.60;99.90
46117;DHT22;32591;48.102;11.772;2024-02-15T06:10:28;7.50;99.90
46117;DHT22;32591;48.102;11.772;2024-02-15T06:12:57;7.50;99.90
46117;DHT22;32591;48.102;11.772;2024-02-15T06:15:26;7.50;99.90
46117;DHT22;32591;48.102;11.772;2024-02-15T06:17:54;7.40;99.90
46117;DHT22;32591;48.102;11.772;2024-02-15T06:20:24;7.40;99.90
46117;DHT22;32591;48.102;11.772;2024-02-15T06:22:55;7.30;99.90
46117;DHT22;32591;48.102;11.772;2024-02-15T06:25:25;7.30;99.90
46117;DHT22;32591;48.102;11.772;2024-02-15T06:27:53;7.20;99.90
46117;DHT22;32591;48.102;11.772;2024-02-15T06:30:26;7.20;99.90
46117;DHT22;32591;48.102;11.772;2024-02-15T06:33:12;7.20;99.90
46117;DHT22;32591;48.102;11.772;2024-02-15T06:35:58;7.20;99.90
46117;DHT22;32591;48.102;11.772;2024-02-15T06:38:44;7.20;99.90
46117;DHT22;32591;48.102;11.772;2024-02-15T06:41:32;7.20;99.90
46117;DHT22;32591;48.102;11.772;2024-02-15T06:44:00;7.10;99.90
46117;DHT22;32591;48.102;11.772;2024-02-15T06:46:28;7.10;99.90
46117;DHT22;32591;48.102;11.772;2024-02-15T06:48:56;7.10;99.90
46117;DHT22;32591;48.102;11.772;2024-02-15T06:51:25;7.10;99.90
46117;DHT22;32591;48.102;11.772;2024-02-15T06:53:53;7.20;99.90
46117;DHT22;32591;48.102;11.772;2024-02-15T06:56:23;7.30;99.90
46117;DHT22;32591;48.102;11.772;2024-02-15T06:58:53;7.40;99.90
46117;DHT22;32591;48.102;11.772;2024-02-15T07:01:23;7.30;99.90
46117;DHT22;32591;48.102;11.772;2024-02-15T07:03:52;7.40;99.90
46117;DHT22;32591;48.102;11.772;2024-02-15T07:06:25;7.50;99.90
46117;DHT22;32591;48.102;11.772;2024-02-15T07:08:54;7.40;99.90
46117;DHT22;32591;48.102;11.772;2024-02-15T07:11:25;7.40;99.90
46117;DHT22;32591;48.102;11.772;2024-02-15T07:13:54;7.40;99.90
46117;DHT22;32591;48.102;11.772;2024-02-15T07:16:24;7.50;99.90
46117;DHT22;32591;48.102;11.772;2024-02-15T07:18:52;7.50;99.90
46117;DHT22;32591;48.102;11.772;2024-02-15T07:21:20;7.50;99.90
46117;DHT22;32591;48.102;11.772;2024-02-15T07:23:53;7.50;99.90
46117;DHT22;32591;48.102;11.772;2024-02-15T07:26:23;7.50;99.90
46117;DHT22;32591;48.102;11.772;2024-02-15T07:28:54;7.60;99.90
46117;DHT22;32591;48.102;11.772;2024-02-15T07:31:26;7.60;99.90
46117;DHT22;32591;48.102;11.772;2024-02-15T07:33:56;7.70;99.90
46117;DHT22;32591;48.102;11.772;2024-02-15T07:36:25;7.70;99.90
46117;DHT22;32591;48.102;11.772;2024-02-15T07:38:55;7.80;99.90
46117;DHT22;32591;48.102;11.772;2024-02-15T07:41:28;7.80;99.90
46117;DHT22;32591;48.102;11.772;2024-02-15T07:43:59;7.90;99.90
46117;DHT22;32591;48.102;11.772;2024-02-15T07:46:28;8.00;99.90
46117;DHT22;32591;48.102;11.772;2024-02-15T07:48:56;8.10;99.90
46117;DHT22;32591;48.102;11.772;2024-02-15T07:51:24;8.10;99.90
46117;DHT22;32591;48.102;11.772;2024-02-15T07:53:53;8.20;99.90
46117;DHT22;32591;48.102;11.772;2024-02-15T07:56:21;8.20;99.90
46117;DHT22;32591;48.102;11.772;2024-02-15T07:58:49;8.30;99.90
46117;DHT22;32591;48.102;11.772;2024-02-15T08:01:21;8.40;99.90
46117;DHT22;32591;48.102;11.772;2024-02-15T08:03:52;8.40;99.90
46117;DHT22;32591;48.102;11.772;2024-02-15T08:06:22;8.50;99.90
46117;DHT22;32591;48.102;11.772;2024-02-15T08:08:52;8.60;99.90
46117;DHT22;32591;48.102;11.772;2024-02-15T08:11:21;8.70;99.90
46117;DHT22;32591;48.102;11.772;2024-02-15T08:13:51;8.80;99.90
46117;DHT22;32591;48.102;11.772;2024-02-15T08:16:23;8.90;99.90
46117;DHT22;32591;48.102;11.772;2024-02-15T08:18:54;9.10;99.90
46117;DHT22;32591;48.102;11.772;2024-02-15T08:21:27;9.20;99.90
46117;DHT22;32591;48.102;11.772;2024-02-15T08:23:56;9.20;99.90
46117;DHT22;32591;48.102;11.772;2024-02-15T08:26:25;9.30;99.90
46117;DHT22;32591;48.102;11.772;2024-02-15T08:28:53;9.50;99.90
46117;DHT22;32591;48.102;11.772;2024-02-15T08:31:24;9.60;99.90
46117;DHT22;32591;48.102;11.772;2024-02-15T08:33:52;9.70;99.90
46117;DHT22;32591;48.102;11.772;2024-02-15T08:36:20;9.80;99.90
46117;DHT22;32591;48.102;11.772;2024-02-15T08:38:49;9.80;99.90
46117;DHT22;32591;48.102;11.772;2024-02-15T08:41:17;10.00;99.90
46117;DHT22;32591;48.102;11.772;2024-02-15T08:43:47;10.10;99.90
46117;DHT22;32591;48.102;11.772;2024-02-15T08:46:16;10.20;99.90
46117;DHT22;32591;48.102;11.772;2024-02-15T08:48:45;10.30;99.90
46117;DHT22;32591;48.102;11.772;2024-02-15T08:51:14;10.50;99.90
46117;DHT22;32591;48.102;11.772;2024-02-15T08:53:43;10.50;99.90
46117;DHT22;32591;48.102;11.772;2024-02-15T08:56:12;10.70;99.90
46117;DHT22;32591;48.102;11.772;2024-02-15T08:58:40;10.80;99.90
46117;DHT22;32591;48.102;11.772;2024-02-15T09:01:09;10.80;99.90
46117;DHT22;32591;48.102;11.772;2024-02-15T09:03:40;10.90;99.90
46117;DHT22;32591;48.102;11.772;2024-02-15T09:06:10;11.10;99.90
46117;DHT22;32591;48.102;11.772;2024-02-15T09:08:38;11.10;99.90
46117;DHT22;32591;48.102;11.772;2024-02-15T09:11:06;11.20;99.90
46117;DHT22;32591;48.102;11.772;2024-02-15T09:13:39;11.30;99.90
46117;DHT22;32591;48.102;11.772;2024-02-15T09:16:07;11.50;99.90
46117;DHT22;32591;48.102;11.772;2024-02-15T09:18:35;11.60;99.90
46117;DHT22;32591;48.102;11.772;2024-02-15T09:21:05;11.60;99.90
46117;DHT22;32591;48.102;11.772;2024-02-15T09:23:34;11.80;99.90
46117;DHT22;32591;48.102;11.772;2024-02-15T09:26:03;11.90;99.90
46117;DHT22;32591;48.102;11.772;2024-02-15T09:28:31;12.00;99.90
46117;DHT22;32591;48.102;11.772;2024-02-15T09:30:59;12.00;99.90
46117;DHT22;32591;48.102;11.772;2024-02-15T09:33:28;12.00;99.90
46117;DHT22;32591;48.102;11.772;2024-02-15T09:35:56;12.10;99.90
46117;DHT22;32591;48.102;11.772;2024-02-15T09:38:24;12.20;99.90
46117;DHT22;32591;48.102;11.772;2024-02-15T09:40:54;12.30;99.90
46117;DHT22;32591;48.102;11.772;2024-02-15T09:43:22;12.30;99.90
46117;DHT22;32591;48.102;11.772;2024-02-15T09:45:53;12.30;99.90
46117;DHT22;32591;48.102;11.772;2024-02-15T09:48:24;12.50;99.90
46117;DHT22;32591;48.102;11.772;2024-02-15T09:50:54;12.60;99.90
46117;DHT22;32591;48.102;11.772;2024-02-15T09:53:23;12.80;99.90
46117;DHT22;32591;48.102;11.772;2024-02-15T09:55:54;12.80;99.90
46117;DHT22;32591;48.102;11.772;2024-02-15T09:58:22;12.90;99.90
46117;DHT22;32591;48.102;11.772;2024-02-15T10:00:50;12.90;99.90
46117;DHT22;32591;48.102;11.772;2024-02-15T10:03:19;12.90;99.90
46117;DHT22;32591;48.102;11.772;2024-02-15T10:05:48;13.00;99.90
46117;DHT22;32591;48.102;11.772;2024-02-15T10:08:18;13.10;99.90
46117;DHT22;32591;48.102;11.772;2024-02-15T10:11:05;13.10;99.90
46117;DHT22;32591;48.102;11.772;2024-02-15T10:13:35;13.20;99.90
46117;DHT22;32591;48.102;11.772;2024-02-15T10:16:14;13.30;99.90
46117;DHT22;32591;48.102;11.772;2024-02-15T10:18:44;13.30;99.90
46117;DHT22;32591;48.102;11.772;2024-02-15T10:21:26;13.40;99.90
46117;DHT22;32591;48.102;11.772;2024-02-15T10:24:05;13.40;99.90
46117;DHT22;32591;48.102;11.772;2024-02-15T10:26:36;13.50;99.90
46117;DHT22;32591;48.102;11.772;2024-02-15T10:29:08;13.70;99.90
46117;DHT22;32591;48.102;11.772;2024-02-15T10:31:38;13.70;99.90
46117;DHT22;32591;48.102;11.772;2024-02-15T10:34:08;13.80;99.90
46117;DHT22;32591;48.102;11.772;2024-02-15T10:36:37;13.90;99.90
46117;DHT22;32591;48.102;11.772;2024-02-15T10:39:13;14.10;99.90
46117;DHT22;32591;48.102;11.772;2024-02-15T10:41:50;14.10;99.90
46117;DHT22;32591;48.102;11.772;2024-02-15T10:44:21;14.20;99.90
46117;DHT22;32591;48.102;11.772;2024-02-15T10:46:51;14.30;99.90
46117;DHT22;32591;48.102;11.772;2024-02-15T10:49:22;14.40;99.90
46117;DHT22;32591;48.102;11.772;2024-02-15T10:51:56;14.50;99.90
46117;DHT22;32591;48.102;11.772;2024-02-15T10:54:40;14.60;99.90
46117;DHT22;32591;48.102;11.772;2024-02-15T10:57:12;14.70;99.90
46117;DHT22;32591;48.102;11.772;2024-02-15T10:59:51;14.70;99.90
46117;DHT22;32591;48.102;11.772;2024-02-15T11:02:27;14.80;99.90
46117;DHT22;32591;48.102;11.772;2024-02-15T11:05:02;14.70;99.90
46117;DHT22;32591;48.102;11.772;2024-02-15T11:07:32;14.70;99.90
46117;DHT22;32591;48.102;11.772;2024-02-15T11:10:02;14.80;99.90
46117;DHT22;32591;48.102;11.772;2024-02-15T11:12:36;14.80;99.90
46117;DHT22;32591;48.102;11.772;2024-02-15T11:15:08;14.90;99.90
46117;DHT22;32591;48.102;11.772;2024-02-15T11:17:46;15.00;99.90
46117;DHT22;32591;48.102;11.772;2024-02-15T11:20:47;15.20;99.90
46117;DHT22;32591;48.102;11.772;2024-02-15T11:23:26;15.20;99.90
46117;DHT22;32591;48.102;11.772;2024-02-15T11:25:58;15.20;99.90
46117;DHT22;32591;48.102;11.772;2024-02-15T11:28:43;15.30;99.90
46117;DHT22;32591;48.102;11.772;2024-02-15T11:31:54;15.30;99.90
46117;DHT22;32591;48.102;11.772;2024-02-15T11:34:44;15.30;99.90
46117;DHT22;32591;48.102;11.772;2024-02-15T11:40:26;15.50;99.90
46117;DHT22;32591;48.102;11.772;2024-02-15T11:42:56;15.50;99.90
46117;DHT22;32591;48.102;11.772;2024-02-15T11:45:29;15.50;99.90
46117;DHT22;32591;48.102;11.772;2024-02-15T11:48:01;15.50;99.90
46117;DHT22;32591;48.102;11.772;2024-02-15T11:50:34;15.60;99.90
46117;DHT22;32591;48.102;11.772;2024-02-15T11:53:04;15.70;99.90
46117;DHT22;32591;48.102;11.772;2024-02-15T11:55:36;15.80;99.90
46117;DHT22;32591;48.102;11.772;2024-02-15T11:58:07;15.60;99.90
46117;DHT22;32591;48.102;11.772;2024-02-15T12:00:46;15.50;99.90
46117;DHT22;32591;48.102;11.772;2024-02-15T12:03:32;15.60;99.90
46117;DHT22;32591;48.102;11.772;2024-02-15T12:06:32;15.70;99.90
46117;DHT22;32591;48.102;11.772;2024-02-15T12:09:18;15.70;99.90
46117;DHT22;32591;48.102;11.772;2024-02-15T12:12:05;15.70;99.90
46117;DHT22;32591;48.102;11.772;2024-02-15T12:14:58;15.80;99.90
46117;DHT22;32591;48.102;11.772;2024-02-15T12:17:46;15.80;99.90
46117;DHT22;32591;48.102;11.772;2024-02-15T12:20:32;15.90;99.90
46117;DHT22;32591;48.102;11.772;2024-02-15T12:23:02;15.90;99.90
46117;DHT22;32591;48.102;11.772;2024-02-15T12:25:34;16.00;99.90
46117;DHT22;32591;48.102;11.772;2024-02-15T12:28:02;16.20;99.90
46117;DHT22;32591;48.102;11.772;2024-02-15T12:30:33;16.30;99.90
46117;DHT22;32591;48.102;11.772;2024-02-15T12:33:11;16.30;99.90
46117;DHT22;32591;48.102;11.772;2024-02-15T12:35:47;16.30;99.90
46117;DHT22;32591;48.102;11.772;2024-02-15T12:38:17;16.20;99.90
46117;DHT22;32591;48.102;11.772;2024-02-15T12:40:50;16.10;99.90
46117;DHT22;32591;48.102;11.772;2024-02-15T12:43:18;16.10;99.90
46117;DHT22;32591;48.102;11.772;2024-02-15T12:45:46;16.00;99.90
46117;DHT22;32591;48.102;11.772;2024-02-15T12:48:15;16.20;99.90
46117;DHT22;32591;48.102;11.772;2024-02-15T12:50:45;16.10;99.90
46117;DHT22;32591;48.102;11.772;2024-02-15T12:53:20;16.10;99.90
46117;DHT22;32591;48.102;11.772;2024-02-15T12:55:53;16.10;99.90
46117;DHT22;32591;48.102;11.772;2024-02-15T12:58:23;16.10;99.90
46117;DHT22;32591;48.102;11.772;2024-02-15T13:00:56;16.10;99.90
46117;DHT22;32591;48.102;11.772;2024-02-15T13:03:27;16.20;99.90
46117;DHT22;32591;48.102;11.772;2024-02-15T13:05:55;16.10;99.90
46117;DHT22;32591;48.102;11.772;2024-02-15T13:08:24;16.10;99.90
46117;DHT22;32591;48.102;11.772;2024-02-15T13:10:52;16.00;99.90
46117;DHT22;32591;48.102;11.772;2024-02-15T13:13:20;16.10;99.90
46117;DHT22;32591;48.102;11.772;2024-02-15T13:15:49;16.10;99.90
46117;DHT22;32591;48.102;11.772;2024-02-15T13:18:19;16.20;99.90
46117;DHT22;32591;48.102;11.772;2024-02-15T13:20:50;16.40;99.90
46117;DHT22;32591;48.102;11.772;2024-02-15T13:23:20;16.40;99.90
46117;DHT22;32591;48.102;11.772;2024-02-15T13:25:52;16.20;99.90
46117;DHT22;32591;48.102;11.772;2024-02-15T13:28:23;16.20;99.90
46117;DHT22;32591;48.102;11.772;2024-02-15T13:30:52;16.30;99.90
46117;DHT22;32591;48.102;11.772;2024-02-15T13:33:23;16.50;99.90
46117;DHT22;32591;48.102;11.772;2024-02-15T13:35:55;16.40;99.90
46117;DHT22;32591;48.102;11.772;2024-02-15T13:38:23;16.40;99.80
46117;DHT22;32591;48.102;11.772;2024-02-15T13:40:52;16.30;99.90
46117;DHT22;32591;48.102;11.772;2024-02-15T13:43:22;16.10;99.90
46117;DHT22;32591;48.102;11.772;2024-02-15T13:45:51;16.10;99.90
46117;DHT22;32591;48.102;11.772;2024-02-15T13:48:19;16.10;99.90
46117;DHT22;32591;48.102;11.772;2024-02-15T13:50:51;16.20;99.90
46117;DHT22;32591;48.102;11.772;2024-02-15T13:53:22;16.40;99.80
46117;DHT22;32591;48.102;11.772;2024-02-15T13:55:52;16.20;99.90
46117;DHT22;32591;48.102;11.772;2024-02-15T13:58:20;16.30;99.90
46117;DHT22;32591;48.102;11.772;2024-02-15T14:00:48;16.40;99.80
46117;DHT22;32591;48.102;11.772;2024-02-15T14:03:16;16.40;99.90
46117;DHT22;32591;48.102;11.772;2024-02-15T14:05:45;16.60;99.30
46117;DHT22;32591;48.102;11.772;2024-02-15T14:08:15;16.40;99.60
46117;DHT22;32591;48.102;11.772;2024-02-15T14:10:45;16.30;99.60
46117;DHT22;32591;48.102;11.772;2024-02-15T14:13:13;16.20;99.80
46117;DHT22;32591;48.102;11.772;2024-02-15T14:15:41;16.20;99.90
46117;DHT22;32591;48.102;11.772;2024-02-15T14:18:11;16.30;99.90
46117;DHT22;32591;48.102;11.772;2024-02-15T14:20:42;16.20;99.90
46117;DHT22;32591;48.102;11.772;2024-02-15T14:23:10;16.30;99.90
46117;DHT22;32591;48.102;11.772;2024-02-15T14:25:42;16.30;99.90
46117;DHT22;32591;48.102;11.772;2024-02-15T14:28:13;16.60;99.90
46117;DHT22;32591;48.102;11.772;2024-02-15T14:30:42;16.70;99.90
46117;DHT22;32591;48.102;11.772;2024-02-15T14:33:28;16.70;99.90
46117;DHT22;32591;48.102;11.772;2024-02-15T14:35:59;16.90;99.60
46117;DHT22;32591;48.102;11.772;2024-02-15T14:38:28;17.00;99.60
46117;DHT22;32591;48.102;11.772;2024-02-15T14:40:57;17.00;99.80
46117;DHT22;32591;48.102;11.772;2024-02-15T14:43:28;17.00;99.20
46117;DHT22;32591;48.102;11.772;2024-02-15T14:45:56;17.00;99.80
46117;DHT22;32591;48.102;11.772;2024-02-15T14:48:26;16.90;99.70
46117;DHT22;32591;48.102;11.772;2024-02-15T14:50:54;17.10;99.80
46117;DHT22;32591;48.102;11.772;2024-02-15T14:53:23;16.90;99.30
46117;DHT22;32591;48.102;11.772;2024-02-15T14:55:52;16.80;99.80
46117;DHT22;32591;48.102;11.772;2024-02-15T14:58:20;16.90;99.60
46117;DHT22;32591;48.102;11.772;2024-02-15T15:00:50;16.90;99.50
46117;DHT22;32591;48.102;11.772;2024-02-15T15:03:30;16.90;99.50
46117;DHT22;32591;48.102;11.772;2024-02-15T15:05:59;16.90;99.40
46117;DHT22;32591;48.102;11.772;2024-02-15T15:08:45;16.80;99.60
46117;DHT22;32591;48.102;11.772;2024-02-15T15:11:31;16.80;99.10
46117;DHT22;32591;48.102;11.772;2024-02-15T15:14:17;16.70;98.60
46117;DHT22;32591;48.102;11.772;2024-02-15T15:16:48;16.70;99.00
46117;DHT22;32591;48.102;11.772;2024-02-15T15:19:16;16.90;99.00
46117;DHT22;32591;48.102;11.772;2024-02-15T15:21:45;16.90;98.60
46117;DHT22;32591;48.102;11.772;2024-02-15T15:24:13;16.70;98.20
46117;DHT22;32591;48.102;11.772;2024-02-15T15:26:41;16.60;98.80
46117;DHT22;32591;48.102;11.772;2024-02-15T15:29:10;16.60;99.00
46117;DHT22;32591;48.102;11.772;2024-02-15T15:31:38;16.60;99.40
46117;DHT22;32591;48.102;11.772;2024-02-15T15:34:08;16.40;99.90
46117;DHT22;32591;48.102;11.772;2024-02-15T15:36:36;16.30;99.90
46117;DHT22;32591;48.102;11.772;2024-02-15T15:39:04;16.10;99.90
46117;DHT22;32591;48.102;11.772;2024-02-15T15:41:36;15.90;99.90
46117;DHT22;32591;48.102;11.772;2024-02-15T15:44:05;15.80;99.90
46117;DHT22;32591;48.102;11.772;2024-02-15T15:46:34;15.70;99.90
46117;DHT22;32591;48.102;11.772;2024-02-15T15:49:03;15.70;99.90
46117;DHT22;32591;48.102;11.772;2024-02-15T15:51:34;15.60;99.90